Time;durP1;ratioP1;P1;durP2;ratioP2;P2;SDS_P1;SDS_P2;PMS_P1;PMS_P2;Temp;Humidity;BMP_temperature;BMP_pressure;BME280_temperature;BME280_humidity;BME280_pressure;Samples;Min_cycle;Max_cycle;Signal;HPM_P1;HPM_P2
2022/08/28 00:01:18;;;;;;;7.35;2.22;;;;;;;;;;5018348;28;20016;-66
2022/08/28 00:03:44;;;;;;;8.75;2.00;;;;;;;;;;5012406;28;20027;-64
2022/08/28 00:06:11;;;;;;;7.00;1.88;;;;;;;;;;5012344;28;20029;-65
2022/08/28 00:08:37;;;;;;;7.20;1.80;;;;;;;;;;5013755;28;20033;-65
2022/08/28 00:11:04;;;;;;;6.28;2.08;;;;;;;;;;5007456;28;20148;-66
2022/08/28 00:13:30;;;;;;;8.43;2.08;;;;;;;;;;5013622;28;20084;-65
2022/08/28 00:15:59;;;;;;;6.53;2.17;;;;;;;;;;5007011;28;20050;-65
2022/08/28 00:18:26;;;;;;;6.80;2.20;;;;;;;;;;5011845;28;20061;-65
2022/08/28 00:20:52;;;;;;;9.38;2.30;;;;;;;;;;4992188;28;20037;-66
2022/08/28 00:23:19;;;;;;;4.63;1.83;;;;;;;;;;5011811;28;20519;-65
2022/08/28 00:25:45;;;;;;;7.00;2.08;;;;;;;;;;4991377;28;20805;-64
2022/08/28 00:28:12;;;;;;;5.88;1.92;;;;;;;;;;5016421;28;20033;-65
2022/08/28 00:30:47;;;;;;;7.10;2.08;;;;;;;;;;5019192;28;20036;-66
2022/08/28 00:33:18;;;;;;;5.43;1.95;;;;;;;;;;5014770;28;20102;-65
2022/08/28 00:35:45;;;;;;;7.47;1.80;;;;;;;;;;5012007;28;20041;-65
2022/08/28 00:38:12;;;;;;;6.70;2.03;;;;;;;;;;4993458;28;20025;-64
2022/08/28 00:40:38;;;;;;;6.90;1.85;;;;;;;;;;5011373;28;20683;-64
2022/08/28 00:43:05;;;;;;;6.65;1.98;;;;;;;;;;5013199;28;20063;-65
2022/08/28 00:45:32;;;;;;;6.75;1.90;;;;;;;;;;5013786;28;20342;-65
2022/08/28 00:47:58;;;;;;;4.93;1.73;;;;;;;;;;5018524;28;20102;-65
2022/08/28 00:50:28;;;;;;;7.88;2.28;;;;;;;;;;5019473;28;20032;-64
2022/08/28 00:52:58;;;;;;;9.25;2.03;;;;;;;;;;4999996;28;20383;-65
2022/08/28 00:55:26;;;;;;;6.53;1.90;;;;;;;;;;5000466;28;20136;-65
2022/08/28 00:57:53;;;;;;;6.05;1.80;;;;;;;;;;5015989;28;20379;-65
2022/08/28 01:00:22;;;;;;;5.55;1.85;;;;;;;;;;5014416;28;20032;-64
2022/08/28 01:02:48;;;;;;;7.15;1.77;;;;;;;;;;5004521;28;20025;-65
2022/08/28 01:05:15;;;;;;;5.30;1.70;;;;;;;;;;5019999;28;20033;-65
2022/08/28 01:07:42;;;;;;;6.82;1.92;;;;;;;;;;5019069;28;20689;-65
2022/08/28 01:10:10;;;;;;;6.20;1.88;;;;;;;;;;5001911;28;20119;-65
2022/08/28 01:12:36;;;;;;;7.55;2.22;;;;;;;;;;5021012;28;20033;-65
2022/08/28 01:15:08;;;;;;;9.95;3.33;;;;;;;;;;5012176;28;20072;-65
2022/08/28 01:17:34;;;;;;;7.78;3.28;;;;;;;;;;5021009;28;20056;-65
2022/08/28 01:20:04;;;;;;;7.85;2.92;;;;;;;;;;5015245;28;21157;-65
2022/08/28 01:22:30;;;;;;;6.20;2.20;;;;;;;;;;5017740;28;20064;-64
2022/08/28 01:24:58;;;;;;;9.10;2.50;;;;;;;;;;5019169;28;20994;-66
2022/08/28 01:27:24;;;;;;;7.00;2.63;;;;;;;;;;5022365;28;20991;-66
2022/08/28 01:29:50;;;;;;;5.93;2.25;;;;;;;;;;5011327;28;20792;-66
2022/08/28 01:32:32;;;;;;;7.97;2.67;;;;;;;;;;5021708;28;20029;-65
2022/08/28 01:34:59;;;;;;;9.00;2.70;;;;;;;;;;4994750;28;20045;-64
2022/08/28 01:37:25;;;;;;;7.13;2.30;;;;;;;;;;5019546;28;20033;-66
2022/08/28 01:39:51;;;;;;;7.90;2.25;;;;;;;;;;5013646;28;20461;-65
2022/08/28 01:42:17;;;;;;;10.65;2.30;;;;;;;;;;5015791;28;20033;-65
2022/08/28 01:44:43;;;;;;;7.55;1.92;;;;;;;;;;5011249;28;20116;-65
2022/08/28 01:47:09;;;;;;;6.03;1.70;;;;;;;;;;5020151;28;20383;-65
2022/08/28 01:49:36;;;;;;;6.22;2.08;;;;;;;;;;5020072;28;20034;-65
2022/08/28 01:52:02;;;;;;;6.43;1.70;;;;;;;;;;5013718;28;20539;-65
2022/08/28 01:54:29;;;;;;;5.28;1.52;;;;;;;;;;5019624;28;20087;-65
2022/08/28 01:56:55;;;;;;;5.95;1.75;;;;;;;;;;4992581;28;20028;-65
2022/08/28 01:59:21;;;;;;;6.18;1.83;;;;;;;;;;5015228;28;20052;-65
2022/08/28 02:01:48;;;;;;;4.85;1.60;;;;;;;;;;5016028;28;20442;-65
2022/08/28 02:04:14;;;;;;;6.13;1.80;;;;;;;;;;5021490;28;20029;-65
2022/08/28 02:06:40;;;;;;;5.20;1.65;;;;;;;;;;5014622;28;20024;-65
2022/08/28 02:09:07;;;;;;;8.35;1.80;;;;;;;;;;5013327;28;20033;-65
2022/08/28 02:11:33;;;;;;;6.22;1.65;;;;;;;;;;5020585;28;20047;-65
2022/08/28 02:13:59;;;;;;;4.68;1.50;;;;;;;;;;5013335;28;20479;-65
2022/08/28 02:16:25;;;;;;;4.75;1.70;;;;;;;;;;5017054;28;20041;-64
2022/08/28 02:18:52;;;;;;;5.93;1.85;;;;;;;;;;5018339;28;20033;-64
2022/08/28 02:21:19;;;;;;;5.95;2.00;;;;;;;;;;5019601;28;20037;-64
2022/08/28 02:23:45;;;;;;;6.88;1.77;;;;;;;;;;5015902;28;20450;-64
2022/08/28 02:26:12;;;;;;;4.30;1.40;;;;;;;;;;5018764;28;20040;-64
2022/08/28 02:28:39;;;;;;;5.97;1.70;;;;;;;;;;4998990;28;20069;-64
2022/08/28 02:31:09;;;;;;;6.03;1.58;;;;;;;;;;5022434;28;20024;-64
2022/08/28 02:33:39;;;;;;;6.45;1.50;;;;;;;;;;5020107;28;20040;-64
2022/08/28 02:36:08;;;;;;;8.77;1.80;;;;;;;;;;4995650;28;20119;-64
2022/08/28 02:38:34;;;;;;;6.18;1.52;;;;;;;;;;4998911;28;20028;-64
2022/08/28 02:41:00;;;;;;;5.03;1.50;;;;;;;;;;5013667;28;20029;-64
2022/08/28 02:43:26;;;;;;;5.93;1.67;;;;;;;;;;4999899;28;20056;-64
2022/08/28 02:45:52;;;;;;;5.75;1.40;;;;;;;;;;4992850;28;20268;-64
2022/08/28 02:48:18;;;;;;;6.18;1.38;;;;;;;;;;5017089;28;20398;-64
2022/08/28 02:50:45;;;;;;;5.03;1.20;;;;;;;;;;5015344;28;20587;-65
2022/08/28 02:53:12;;;;;;;5.45;1.50;;;;;;;;;;5017863;28;20464;-65
2022/08/28 02:55:38;;;;;;;4.50;1.40;;;;;;;;;;5013303;28;20479;-64
2022/08/28 02:58:05;;;;;;;3.90;1.30;;;;;;;;;;4998670;28;20498;-65
2022/08/28 03:00:32;;;;;;;5.80;1.30;;;;;;;;;;5015367;28;20463;-64
2022/08/28 03:02:58;;;;;;;4.70;1.38;;;;;;;;;;5013446;28;20038;-64
2022/08/28 03:05:25;;;;;;;5.57;1.50;;;;;;;;;;5022346;28;20035;-64
2022/08/28 03:07:52;;;;;;;4.10;1.40;;;;;;;;;;5015617;28;20399;-64
2022/08/28 03:10:18;;;;;;;4.25;1.40;;;;;;;;;;5018407;28;20036;-64
2022/08/28 03:12:45;;;;;;;4.60;1.33;;;;;;;;;;5010138;28;20072;-64
2022/08/28 03:15:11;;;;;;;6.85;1.45;;;;;;;;;;5000084;28;20033;-64
2022/08/28 03:17:37;;;;;;;3.13;1.00;;;;;;;;;;5016499;28;20038;-64
2022/08/28 03:20:05;;;;;;;6.40;1.48;;;;;;;;;;5017652;28;20021;-64
2022/08/28 03:25:16;;;;;;;5.60;1.40;;;;;;;;;;5015069;28;20086;-65
2022/08/28 03:27:42;;;;;;;5.88;1.48;;;;;;;;;;5012973;28;20037;-64
2022/08/28 03:30:09;;;;;;;6.57;1.48;;;;;;;;;;5013542;28;20070;-64
2022/08/28 03:32:35;;;;;;;4.85;1.52;;;;;;;;;;5016163;28;20231;-65
2022/08/28 03:35:01;;;;;;;5.15;1.30;;;;;;;;;;5013343;28;20037;-64
2022/08/28 03:37:27;;;;;;;7.60;1.30;;;;;;;;;;5014198;28;20091;-64
2022/08/28 03:39:53;;;;;;;5.32;1.42;;;;;;;;;;5010982;28;20060;-64
2022/08/28 03:42:20;;;;;;;4.15;1.30;;;;;;;;;;5016065;28;20037;-65
2022/08/28 03:44:47;;;;;;;5.80;1.38;;;;;;;;;;4993612;28;20025;-64
2022/08/28 03:47:14;;;;;;;6.05;1.30;;;;;;;;;;5016451;28;20029;-65
2022/08/28 03:49:40;;;;;;;5.45;1.30;;;;;;;;;;5001140;28;20029;-64
2022/08/28 03:52:06;;;;;;;3.58;1.30;;;;;;;;;;4999012;28;20036;-64
2022/08/28 03:54:32;;;;;;;5.60;1.50;;;;;;;;;;5017997;28;20303;-64
2022/08/28 03:56:59;;;;;;;5.28;1.35;;;;;;;;;;5010559;28;20391;-66
2022/08/28 03:59:25;;;;;;;5.30;1.40;;;;;;;;;;5011623;28;20033;-65
2022/08/28 04:01:51;;;;;;;5.72;1.40;;;;;;;;;;5014678;28;20063;-65
2022/08/28 04:04:17;;;;;;;5.53;1.70;;;;;;;;;;5000951;28;20037;-65
2022/08/28 04:06:43;;;;;;;4.45;1.50;;;;;;;;;;5011614;28;20048;-65
2022/08/28 04:09:09;;;;;;;6.50;1.50;;;;;;;;;;5021558;28;20062;-65
2022/08/28 04:11:41;;;;;;;5.40;1.42;;;;;;;;;;5020076;28;20657;-65
2022/08/28 04:14:08;;;;;;;5.03;1.50;;;;;;;;;;5017170;28;20036;-65
2022/08/28 04:16:34;;;;;;;4.25;1.40;;;;;;;;;;5014864;28;20033;-65
2022/08/28 04:19:00;;;;;;;5.75;1.40;;;;;;;;;;5014139;28;20025;-65
2022/08/28 04:21:26;;;;;;;5.43;1.63;;;;;;;;;;5016693;28;20045;-65
2022/08/28 04:23:53;;;;;;;6.90;1.50;;;;;;;;;;5012780;28;20040;-66
2022/08/28 04:26:20;;;;;;;4.85;1.58;;;;;;;;;;5015744;28;20053;-65
2022/08/28 04:28:47;;;;;;;6.50;1.70;;;;;;;;;;5016026;28;20033;-66
2022/08/28 04:31:14;;;;;;;7.07;1.77;;;;;;;;;;5015389;28;20114;-65
2022/08/28 04:33:40;;;;;;;5.22;1.55;;;;;;;;;;5015762;28;20029;-65
2022/08/28 04:36:11;;;;;;;7.40;1.83;;;;;;;;;;5015107;28;20033;-65
2022/08/28 04:38:38;;;;;;;5.88;1.65;;;;;;;;;;5013392;28;20036;-65
2022/08/28 04:41:05;;;;;;;5.43;1.50;;;;;;;;;;5013262;28;20025;-65
2022/08/28 04:43:31;;;;;;;7.15;1.50;;;;;;;;;;5012345;28;20057;-65
2022/08/28 04:45:57;;;;;;;5.00;1.48;;;;;;;;;;5012946;28;20043;-65
2022/08/28 04:48:24;;;;;;;4.45;1.40;;;;;;;;;;5015065;28;20086;-65
2022/08/28 04:50:50;;;;;;;6.28;1.40;;;;;;;;;;4993038;28;20970;-65
2022/08/28 04:53:17;;;;;;;4.40;1.35;;;;;;;;;;4997133;28;20527;-64
2022/08/28 04:55:45;;;;;;;6.13;1.50;;;;;;;;;;5016236;28;20035;-65
2022/08/28 04:58:11;;;;;;;5.15;1.45;;;;;;;;;;4997743;28;20033;-65
2022/08/28 05:00:42;;;;;;;5.22;1.55;;;;;;;;;;5019015;28;20710;-65
2022/08/28 05:03:10;;;;;;;5.18;1.50;;;;;;;;;;5014591;28;20196;-65
2022/08/28 05:05:46;;;;;;;5.07;1.42;;;;;;;;;;5020136;28;20026;-65
2022/08/28 05:08:12;;;;;;;;;;;;;;;;;;5017827;28;20117;-65
2022/08/28 05:10:39;;;;;;;10.30;3.60;;;;;;;;;;5020543;28;19916;-65
2022/08/28 05:13:05;;;;;;;9.73;3.28;;;;;;;;;;5013838;28;20732;-65
2022/08/28 05:15:32;;;;;;;12.10;2.58;;;;;;;;;;5020587;28;20044;-65
2022/08/28 05:17:58;;;;;;;5.95;1.70;;;;;;;;;;5015241;28;20040;-65
2022/08/28 05:20:25;;;;;;;6.10;1.80;;;;;;;;;;5013334;28;20029;-65
2022/08/28 05:22:51;;;;;;;8.63;2.08;;;;;;;;;;4992327;28;20419;-65
2022/08/28 05:25:17;;;;;;;7.03;1.70;;;;;;;;;;5000938;28;20046;-64
2022/08/28 05:27:43;;;;;;;;;;;;;;;;;;4998043;28;20051;-64
2022/08/28 05:30:09;;;;;;;6.63;2.00;;;;;;;;;;5000370;28;20286;-64
2022/08/28 05:32:36;;;;;;;9.85;2.13;;;;;;;;;;4997217;28;20030;-64
2022/08/28 05:35:02;;;;;;;7.00;1.80;;;;;;;;;;4972558;28;21239;-64
2022/08/28 05:37:28;;;;;;;5.97;1.80;;;;;;;;;;4997979;28;20025;-64
2022/08/28 05:39:55;;;;;;;6.05;1.77;;;;;;;;;;4998601;28;20030;-64
2022/08/28 05:42:21;;;;;;;6.78;1.88;;;;;;;;;;5000929;28;20405;-65
2022/08/28 05:44:47;;;;;;;6.88;2.63;;;;;;;;;;4992123;28;20025;-64
2022/08/28 05:47:14;;;;;;;11.00;3.05;;;;;;;;;;4995395;28;20440;-66
2022/08/28 05:49:40;;;;;;;7.10;2.35;;;;;;;;;;4984758;28;20076;-65
2022/08/28 05:52:06;;;;;;;5.80;2.05;;;;;;;;;;4979229;28;20064;-64
2022/08/28 05:54:32;;;;;;;6.30;1.70;;;;;;;;;;4982972;28;20025;-64
2022/08/28 05:56:58;;;;;;;6.05;1.80;;;;;;;;;;4992705;28;20373;-65
2022/08/28 05:59:25;;;;;;;5.40;1.70;;;;;;;;;;4997706;28;20025;-64
2022/08/28 06:01:51;;;;;;;4.20;1.50;;;;;;;;;;4990484;28;20061;-65
2022/08/28 06:04:19;;;;;;;6.55;1.73;;;;;;;;;;4998619;28;20844;-66
2022/08/28 06:06:47;;;;;;;6.15;1.80;;;;;;;;;;4991909;28;20041;-65
2022/08/28 06:09:15;;;;;;;5.45;1.65;;;;;;;;;;4998555;28;20205;-65
2022/08/28 06:11:43;;;;;;;5.00;1.75;;;;;;;;;;4994041;28;20041;-65
2022/08/28 06:14:09;;;;;;;12.07;1.88;;;;;;;;;;4998522;28;20389;-67
2022/08/28 06:16:41;;;;;;;6.03;1.80;;;;;;;;;;5000412;28;20037;-65
2022/08/28 06:19:09;;;;;;;7.03;1.90;;;;;;;;;;4998949;28;20090;-66
2022/08/28 06:21:36;;;;;;;6.50;1.77;;;;;;;;;;4980030;28;20474;-66
2022/08/28 06:24:02;;;;;;;14.70;2.50;;;;;;;;;;4978270;28;20119;-66
2022/08/28 06:26:28;;;;;;;10.25;2.90;;;;;;;;;;4996366;28;20149;-66
2022/08/28 06:28:58;;;;;;;8.35;2.30;;;;;;;;;;4994700;28;20103;-66
2022/08/28 06:31:24;;;;;;;12.68;2.70;;;;;;;;;;4998390;28;20060;-66
2022/08/28 06:33:50;;;;;;;12.23;2.45;;;;;;;;;;4992476;28;20030;-65
2022/08/28 06:36:16;;;;;;;12.40;2.50;;;;;;;;;;4998544;28;20149;-65
2022/08/28 06:38:45;;;;;;;10.38;2.33;;;;;;;;;;4995509;28;20022;-65
2022/08/28 06:41:12;;;;;;;9.32;2.13;;;;;;;;;;4994015;28;20401;-64
2022/08/28 06:43:38;;;;;;;7.57;1.70;;;;;;;;;;4996235;28;20056;-66
2022/08/28 06:46:05;;;;;;;7.43;2.25;;;;;;;;;;4989859;28;20037;-66
2022/08/28 06:48:31;;;;;;;8.48;2.30;;;;;;;;;;4981122;28;20034;-65
2022/08/28 06:50:58;;;;;;;7.00;2.10;;;;;;;;;;4991977;28;20144;-64
2022/08/28 06:53:28;;;;;;;5.80;2.05;;;;;;;;;;4998979;28;20402;-65
2022/08/28 06:55:58;;;;;;;9.57;2.17;;;;;;;;;;4975298;28;20037;-65
2022/08/28 06:58:25;;;;;;;7.68;2.17;;;;;;;;;;4998857;28;20451;-65
2022/08/28 07:00:59;;;;;;;6.70;1.95;;;;;;;;;;4990590;28;20080;-64
2022/08/28 07:03:26;;;;;;;6.97;2.40;;;;;;;;;;4997883;28;20079;-66
2022/08/28 07:05:55;;;;;;;7.38;2.15;;;;;;;;;;4980425;28;20450;-65
2022/08/28 07:08:21;;;;;;;5.90;2.13;;;;;;;;;;4990295;28;20269;-65
2022/08/28 07:10:48;;;;;;;8.30;2.40;;;;;;;;;;4994124;28;20040;-65
2022/08/28 07:13:14;;;;;;;5.28;1.90;;;;;;;;;;4994947;28;20060;-65
2022/08/28 07:15:40;;;;;;;9.45;2.30;;;;;;;;;;4992877;28;20029;-67
2022/08/28 07:18:06;;;;;;;6.13;2.20;;;;;;;;;;4993943;28;20025;-65
2022/08/28 07:20:32;;;;;;;5.65;1.85;;;;;;;;;;4996394;28;20452;-65
2022/08/28 07:22:58;;;;;;;6.82;2.17;;;;;;;;;;5008058;28;20049;-65
2022/08/28 07:25:25;;;;;;;6.93;2.20;;;;;;;;;;5017824;28;20028;-65
2022/08/28 07:27:51;;;;;;;7.45;2.03;;;;;;;;;;5010387;28;20036;-65
2022/08/28 07:30:17;;;;;;;6.65;2.08;;;;;;;;;;5016241;28;20029;-65
2022/08/28 07:32:47;;;;;;;8.10;2.55;;;;;;;;;;5012875;28;20183;-65
2022/08/28 07:35:14;;;;;;;7.45;2.38;;;;;;;;;;5011678;28;20434;-65
2022/08/28 07:37:40;;;;;;;5.68;2.20;;;;;;;;;;5013890;28;20518;-65
2022/08/28 07:40:08;;;;;;;7.13;2.00;;;;;;;;;;5010811;28;20434;-65
2022/08/28 07:45:20;;;;;;;6.57;2.10;;;;;;;;;;5013734;28;20683;-65
2022/08/28 07:47:46;;;;;;;6.70;2.60;;;;;;;;;;5008178;28;20447;-65
2022/08/28 07:50:13;;;;;;;9.80;2.90;;;;;;;;;;5013853;28;20032;-65
2022/08/28 07:52:40;;;;;;;8.27;2.97;;;;;;;;;;5010392;28;20102;-65
2022/08/28 07:55:07;;;;;;;6.85;2.00;;;;;;;;;;5011502;28;20110;-65
2022/08/28 07:57:34;;;;;;;6.53;2.40;;;;;;;;;;5010926;28;20036;-66
2022/08/28 08:00:00;;;;;;;7.35;2.17;;;;;;;;;;5011787;28;20593;-65
2022/08/28 08:02:26;;;;;;;5.68;1.83;;;;;;;;;;5017364;28;20450;-65
2022/08/28 08:04:52;;;;;;;4.72;1.70;;;;;;;;;;5013745;28;20041;-64
2022/08/28 08:07:19;;;;;;;8.20;2.00;;;;;;;;;;5019148;28;20464;-66
2022/08/28 08:09:45;;;;;;;8.43;1.90;;;;;;;;;;5012375;28;20154;-66
2022/08/28 08:12:13;;;;;;;5.72;1.80;;;;;;;;;;4996723;28;20032;-64
2022/08/28 08:14:39;;;;;;;6.95;1.85;;;;;;;;;;5015933;28;20459;-65
2022/08/28 08:17:06;;;;;;;6.78;2.10;;;;;;;;;;5008592;28;20092;-65
2022/08/28 08:19:32;;;;;;;8.07;2.00;;;;;;;;;;5015830;28;20029;-65
2022/08/28 08:21:58;;;;;;;7.82;1.80;;;;;;;;;;5011309;28;20052;-64
2022/08/28 08:24:25;;;;;;;8.98;1.95;;;;;;;;;;5016318;28;20111;-65
2022/08/28 08:26:53;;;;;;;6.70;2.00;;;;;;;;;;5010402;28;20140;-65
2022/08/28 08:29:19;;;;;;;5.70;1.75;;;;;;;;;;5020451;28;20029;-65
2022/08/28 08:31:46;;;;;;;7.60;1.90;;;;;;;;;;5012026;28;20442;-65
2022/08/28 08:34:12;;;;;;;8.60;1.92;;;;;;;;;;5013793;28;20064;-65
2022/08/28 08:36:38;;;;;;;7.28;2.03;;;;;;;;;;5019201;28;20048;-65
2022/08/28 08:39:07;;;;;;;5.72;1.85;;;;;;;;;;4997921;28;20056;-66
2022/08/28 08:41:33;;;;;;;6.93;1.75;;;;;;;;;;5022029;28;20025;-65
2022/08/28 08:44:19;;;;;;;5.45;1.75;;;;;;;;;;5018784;28;20021;-65
2022/08/28 08:46:48;;;;;;;6.78;1.90;;;;;;;;;;4989528;28;20037;-64
2022/08/28 08:49:24;;;;;;;6.32;1.80;;;;;;;;;;5000998;28;20460;-65
2022/08/28 08:52:14;;;;;;;5.85;1.60;;;;;;;;;;5016427;28;20393;-67
2022/08/28 08:54:44;;;;;;;8.02;2.00;;;;;;;;;;5020959;28;20496;-65
2022/08/28 08:57:12;;;;;;;6.32;1.92;;;;;;;;;;5019039;28;20500;-67
2022/08/28 08:59:39;;;;;;;5.88;1.58;;;;;;;;;;5020875;28;20565;-65
2022/08/28 09:02:17;;;;;;;7.03;1.60;;;;;;;;;;5016180;28;20048;-65
2022/08/28 09:04:54;;;;;;;6.30;1.67;;;;;;;;;;5015231;28;20487;-66
2022/08/28 09:07:26;;;;;;;5.60;1.42;;;;;;;;;;5013874;28;20028;-66
2022/08/28 09:09:53;;;;;;;5.15;1.33;;;;;;;;;;4993553;28;20137;-67
2022/08/28 09:12:21;;;;;;;4.45;1.40;;;;;;;;;;5000615;28;20411;-65
2022/08/28 09:14:56;;;;;;;4.88;1.50;;;;;;;;;;4994120;28;20113;-65
2022/08/28 09:17:26;;;;;;;5.07;1.30;;;;;;;;;;5021724;28;20025;-65
2022/08/28 09:19:52;;;;;;;4.32;1.70;;;;;;;;;;5016511;28;20484;-65
2022/08/28 09:22:19;;;;;;;4.40;1.40;;;;;;;;;;5014585;28;20049;-66
2022/08/28 09:24:45;;;;;;;4.72;1.45;;;;;;;;;;5016304;28;20029;-65
2022/08/28 09:27:22;;;;;;;6.20;1.63;;;;;;;;;;5017572;28;20132;-65
2022/08/28 09:29:59;;;;;;;6.20;1.65;;;;;;;;;;5015405;28;20081;-65
2022/08/28 09:32:34;;;;;;;5.55;1.38;;;;;;;;;;5022443;28;20059;-66
2022/08/28 09:35:14;;;;;;;5.50;1.50;;;;;;;;;;5019275;28;20374;-65
2022/08/28 09:37:41;;;;;;;5.57;1.48;;;;;;;;;;5018353;28;20033;-65
2022/08/28 09:40:13;;;;;;;4.10;1.42;;;;;;;;;;5023208;28;20079;-65
2022/08/28 09:45:26;;;;;;;8.02;1.30;;;;;;;;;;5013587;28;20319;-65
2022/08/28 09:47:59;;;;;;;4.93;1.48;;;;;;;;;;5017497;28;20029;-65
2022/08/28 09:50:30;;;;;;;6.78;1.55;;;;;;;;;;5018207;28;20435;-65
2022/08/28 09:52:59;;;;;;;4.88;1.33;;;;;;;;;;4995200;28;20041;-65
2022/08/28 09:55:41;;;;;;;6.03;1.60;;;;;;;;;;5016834;28;20037;-65
2022/08/28 09:58:07;;;;;;;6.43;1.35;;;;;;;;;;5019713;28;20025;-65
2022/08/28 10:00:34;;;;;;;6.95;1.63;;;;;;;;;;4999496;28;20478;-65
2022/08/28 10:03:13;;;;;;;4.43;1.40;;;;;;;;;;5008081;28;20057;-66
2022/08/28 10:06:00;;;;;;;5.03;1.52;;;;;;;;;;5012381;28;20037;-65
2022/08/28 10:08:44;;;;;;;6.50;1.60;;;;;;;;;;5016287;28;20259;-66
2022/08/28 10:11:32;;;;;;;5.10;1.20;;;;;;;;;;5015700;28;20033;-66
2022/08/28 10:14:02;;;;;;;4.85;1.27;;;;;;;;;;5008021;28;20553;-66
2022/08/28 10:16:35;;;;;;;7.25;1.35;;;;;;;;;;5012414;28;20048;-65
2022/08/28 10:19:04;;;;;;;6.75;1.45;;;;;;;;;;5010603;28;21999;-66
2022/08/28 10:21:34;;;;;;;5.28;1.40;;;;;;;;;;5013710;28;20045;-65
2022/08/28 10:24:23;;;;;;;4.85;1.30;;;;;;;;;;5012367;28;20048;-65
2022/08/28 10:26:53;;;;;;;6.03;1.70;;;;;;;;;;4999000;28;20527;-66
2022/08/28 10:29:25;;;;;;;8.20;1.67;;;;;;;;;;5016090;28;20025;-66
2022/08/28 10:32:04;;;;;;;5.57;1.38;;;;;;;;;;5008606;28;20062;-65
2022/08/28 10:34:42;;;;;;;6.07;1.50;;;;;;;;;;5012403;28;20017;-65
2022/08/28 10:37:14;;;;;;;5.55;1.55;;;;;;;;;;5001130;28;20046;-65
2022/08/28 10:39:59;;;;;;;4.28;1.10;;;;;;;;;;4998505;28;20581;-68
2022/08/28 10:42:29;;;;;;;7.95;1.60;;;;;;;;;;5016218;28;20550;-65
2022/08/28 10:44:58;;;;;;;4.10;1.08;;;;;;;;;;5011879;28;20532;-65
2022/08/28 10:47:25;;;;;;;7.13;1.35;;;;;;;;;;5014784;28;20140;-65
2022/08/28 10:49:53;;;;;;;4.75;1.33;;;;;;;;;;5012362;28;20033;-67
2022/08/28 10:52:46;;;;;;;5.40;1.38;;;;;;;;;;5012565;28;20121;-66
2022/08/28 10:55:23;;;;;;;4.13;1.02;;;;;;;;;;4953377;28;20042;-65
2022/08/28 10:57:52;;;;;;;4.25;1.30;;;;;;;;;;4938115;28;20043;-65
2022/08/28 11:00:20;;;;;;;5.72;1.30;;;;;;;;;;4941872;28;20492;-65
2022/08/28 11:02:55;;;;;;;6.68;1.50;;;;;;;;;;4954632;28;20401;-67
2022/08/28 11:05:22;;;;;;;4.00;1.27;;;;;;;;;;4943743;28;20050;-66
2022/08/28 11:07:56;;;;;;;3.97;1.38;;;;;;;;;;4953263;28;20110;-66
2022/08/28 11:10:22;;;;;;;5.00;1.30;;;;;;;;;;4954446;28;20137;-66
2022/08/28 11:12:50;;;;;;;5.25;1.10;;;;;;;;;;4956117;28;20136;-66
2022/08/28 11:15:22;;;;;;;5.68;1.05;;;;;;;;;;4954419;28;20030;-66
2022/08/28 11:17:49;;;;;;;5.18;1.02;;;;;;;;;;4954746;28;20181;-66
2022/08/28 11:20:23;;;;;;;3.70;1.08;;;;;;;;;;4941494;28;20497;-67
2022/08/28 11:22:55;;;;;;;6.88;1.30;;;;;;;;;;4937059;28;20078;-66
2022/08/28 11:25:24;;;;;;;4.32;1.20;;;;;;;;;;4955270;28;20741;-68
2022/08/28 11:28:08;;;;;;;5.55;1.65;;;;;;;;;;4952262;28;20065;-67
2022/08/28 11:30:35;;;;;;;6.90;1.93;;;;;;;;;;4953685;28;20099;-66
2022/08/28 11:33:09;;;;;;;6.03;1.60;;;;;;;;;;5001495;28;21886;-66
2022/08/28 11:35:41;;;;;;;6.20;2.10;;;;;;;;;;5007923;28;20033;-66
2022/08/28 11:38:07;;;;;;;6.78;1.48;;;;;;;;;;5008358;28;20525;-66
2022/08/28 11:40:33;;;;;;;4.80;1.27;;;;;;;;;;5009538;28;20025;-66
2022/08/28 11:43:15;;;;;;;4.18;1.20;;;;;;;;;;4992498;28;20443;-66
2022/08/28 11:45:44;;;;;;;5.38;1.58;;;;;;;;;;4994977;28;20577;-66
2022/08/28 11:48:22;;;;;;;8.30;1.55;;;;;;;;;;5011703;28;20056;-66
2022/08/28 11:50:51;;;;;;;5.57;1.40;;;;;;;;;;5008198;28;20128;-66
2022/08/28 11:53:21;;;;;;;6.15;1.40;;;;;;;;;;5010542;28;20056;-67
2022/08/28 11:55:59;;;;;;;5.82;1.55;;;;;;;;;;5005057;28;20546;-66
2022/08/28 11:58:52;;;;;;;5.13;1.33;;;;;;;;;;5003617;28;20030;-66
2022/08/28 12:01:28;;;;;;;4.65;1.25;;;;;;;;;;4951384;28;20120;-66
2022/08/28 12:03:59;;;;;;;5.85;1.40;;;;;;;;;;4975021;28;20176;-66
2022/08/28 12:06:43;;;;;;;6.97;1.55;;;;;;;;;;4977595;28;20433;-66
2022/08/28 12:09:32;;;;;;;6.47;1.42;;;;;;;;;;4977111;28;20498;-66
2022/08/28 12:12:19;;;;;;;6.95;1.48;;;;;;;;;;4971549;28;20038;-67
2022/08/28 12:14:45;;;;;;;5.95;1.40;;;;;;;;;;4939900;28;20498;-66
2022/08/28 12:17:23;;;;;;;6.35;1.10;;;;;;;;;;4981957;28;20221;-67
2022/08/28 12:20:11;;;;;;;4.25;0.93;;;;;;;;;;4976743;28;20396;-67
2022/08/28 12:22:57;;;;;;;3.85;1.20;;;;;;;;;;4979240;28;20061;-67
2022/08/28 12:25:40;;;;;;;4.78;1.20;;;;;;;;;;4980140;28;20066;-67
2022/08/28 12:28:19;;;;;;;5.25;1.33;;;;;;;;;;4974264;28;20555;-67
2022/08/28 12:31:05;;;;;;;6.32;1.50;;;;;;;;;;4978964;28;20111;-69
2022/08/28 12:33:41;;;;;;;5.38;1.42;;;;;;;;;;4939960;28;20057;-71
2022/08/28 12:36:13;;;;;;;5.70;1.30;;;;;;;;;;4978740;28;20117;-68
2022/08/28 12:38:39;;;;;;;4.70;1.20;;;;;;;;;;5001320;28;20045;-68
2022/08/28 12:41:13;;;;;;;6.28;1.60;;;;;;;;;;4990117;28;20021;-69
2022/08/28 12:43:43;;;;;;;5.10;1.40;;;;;;;;;;5010534;28;20035;-66
2022/08/28 12:46:10;;;;;;;8.25;1.70;;;;;;;;;;5002022;28;20068;-66
2022/08/28 12:49:06;;;;;;;6.35;1.58;;;;;;;;;;5012263;28;20332;-66
2022/08/28 12:51:34;;;;;;;7.30;1.80;;;;;;;;;;4981467;28;20157;-66
2022/08/28 12:54:01;;;;;;;5.40;1.40;;;;;;;;;;4958973;28;20038;-68
2022/08/28 12:56:28;;;;;;;5.25;1.58;;;;;;;;;;4977288;28;20112;-69
2022/08/28 12:58:55;;;;;;;8.63;1.90;;;;;;;;;;4975599;28;20040;-65
2022/08/28 13:01:30;;;;;;;6.93;1.67;;;;;;;;;;4978981;28;20583;-64
2022/08/28 13:04:02;;;;;;;7.68;1.55;;;;;;;;;;4975765;28;20273;-64
2022/08/28 13:06:30;;;;;;;4.05;1.30;;;;;;;;;;4979107;28;20061;-65
2022/08/28 13:09:04;;;;;;;6.50;1.77;;;;;;;;;;4973329;28;20066;-64
2022/08/28 13:11:33;;;;;;;5.20;1.33;;;;;;;;;;4978674;28;20034;-64
2022/08/28 13:13:59;;;;;;;6.57;1.35;;;;;;;;;;4975296;28;20428;-66
2022/08/28 13:16:34;;;;;;;4.65;1.30;;;;;;;;;;4954926;28;20621;-68
2022/08/28 13:19:06;;;;;;;6.50;1.33;;;;;;;;;;4976975;28;20528;-67
2022/08/28 13:24:46;;;;;;;5.57;1.50;;;;;;;;;;4902099;29;20043;-68
2022/08/28 13:27:20;;;;;;;8.23;1.73;;;;;;;;;;4904752;29;20467;-68
2022/08/28 13:40:59;;;;;;;6.28;1.83;;;;;;;;;;4943089;28;20377;-68
2022/08/28 13:43:35;;;;;;;7.80;1.73;;;;;;;;;;4965077;28;20030;-68
2022/08/28 13:49:07;;;;;;;5.10;1.52;;;;;;;;;;4993069;28;21147;-69
2022/08/28 13:51:57;;;;;;;7.03;1.70;;;;;;;;;;4987674;28;20082;-68
2022/08/28 13:54:49;;;;;;;5.72;1.25;;;;;;;;;;5001521;28;20041;-67
2022/08/28 13:57:36;;;;;;;5.60;1.85;;;;;;;;;;4893735;29;20576;-68
2022/08/28 14:00:02;;;;;;;6.50;1.52;;;;;;;;;;4894401;29;20073;-66
2022/08/28 14:05:43;;;;;;;5.82;1.15;;;;;;;;;;4906285;29;20066;-65
2022/08/28 14:08:09;;;;;;;5.53;1.70;;;;;;;;;;4823745;29;20037;-66
2022/08/28 14:13:43;;;;;;;4.65;1.42;;;;;;;;;;4838462;29;20330;-65
2022/08/28 14:16:39;;;;;;;;;;;;;;;;;;;;;
2022/08/28 14:19:05;;;;;;;5.38;1.15;;;;;;;;;;4837492;29;20049;-67
2022/08/28 14:21:54;;;;;;;5.38;1.30;;;;;;;;;;4845256;29;20045;-66
2022/08/28 14:24:32;;;;;;;;;;;;;;;;;;;;;
2022/08/28 14:27:19;;;;;;;3.75;1.00;;;;;;;;;;4825501;29;20041;-67
2022/08/28 14:30:01;;;;;;;4.15;1.08;;;;;;;;;;4821486;29;20105;-66
2022/08/28 14:32:57;;;;;;;5.13;1.10;;;;;;;;;;4825549;29;20053;-66
2022/08/28 14:35:23;;;;;;;6.03;1.20;;;;;;;;;;4823372;29;20073;-66
2022/08/28 14:37:49;;;;;;;5.07;1.00;;;;;;;;;;4825999;29;20232;-65
2022/08/28 14:40:15;;;;;;;5.55;1.20;;;;;;;;;;4827958;29;20932;-66
2022/08/28 14:42:41;;;;;;;5.32;1.00;;;;;;;;;;4827529;29;20045;-66
2022/08/28 14:45:08;;;;;;;5.70;1.00;;;;;;;;;;4843258;29;20481;-66
2022/08/28 14:47:34;;;;;;;3.55;1.00;;;;;;;;;;4861391;29;20492;-66
2022/08/28 14:50:01;;;;;;;6.50;1.30;;;;;;;;;;4857127;29;20140;-66
2022/08/28 14:52:27;;;;;;;5.40;1.20;;;;;;;;;;4864547;29;20047;-66
2022/08/28 14:54:53;;;;;;;3.70;1.00;;;;;;;;;;4858580;29;20093;-66
2022/08/28 14:57:19;;;;;;;4.50;1.00;;;;;;;;;;4856037;29;20029;-66
2022/08/28 14:59:45;;;;;;;2.95;0.90;;;;;;;;;;4861238;29;20047;-66
2022/08/28 15:02:12;;;;;;;6.18;1.10;;;;;;;;;;4882721;29;20036;-65
2022/08/28 15:04:38;;;;;;;4.60;1.08;;;;;;;;;;4881267;29;20400;-66
2022/08/28 15:07:07;;;;;;;5.25;1.15;;;;;;;;;;4894564;29;20035;-66
2022/08/28 15:09:36;;;;;;;6.50;1.30;;;;;;;;;;4896830;29;20162;-67
2022/08/28 15:12:03;;;;;;;6.32;1.52;;;;;;;;;;4968776;28;20518;-66
2022/08/28 15:14:30;;;;;;;6.60;1.27;;;;;;;;;;4999032;28;20678;-67
2022/08/28 15:16:56;;;;;;;7.68;1.23;;;;;;;;;;4997491;28;20025;-67
2022/08/28 15:19:22;;;;;;;4.10;1.05;;;;;;;;;;4998002;28;20038;-67
2022/08/28 15:21:50;;;;;;;4.05;1.20;;;;;;;;;;4995643;28;20029;-66
2022/08/28 15:24:18;;;;;;;4.47;1.10;;;;;;;;;;5000432;28;20033;-67
2022/08/28 15:26:44;;;;;;;4.60;1.27;;;;;;;;;;4978152;28;20025;-67
2022/08/28 15:29:10;;;;;;;4.65;1.25;;;;;;;;;;4970530;28;20494;-67
2022/08/28 15:31:42;;;;;;;6.70;1.60;;;;;;;;;;4996286;28;20027;-66